Terminal Aerodrome Forecast
Issued by NWS Lake Charles, LA

Home | Current Version | Previous Version | Text Only | Print | Product List | Glossary On
Versions: 1 2 3 4 5 6 7 8 9 10 11 12 13 14 15 16 17 18
000
FTUS44 KLCH 161724
TAFARA
TAF
KARA 161724Z 1618/1718 16015G20KT P6SM BKN025
     FM170000 16010KT P6SM BKN015
     FM170900 16007KT 5SM BR VCSH OVC007
     FM171500 17009KT P6SM VCSH OVC015=

USA.gov is the U.S. government's official web portal to all federal, state and local government web resources and services.